WXM80 ListenWXM80 Stop

You find our weather info also at:

UK Metoffice

WeatherCloud

Weather Underground

Northeastern Weather Network

AWEKAS

Citizen Weather Observer Program (CWOP)

HAMweather, WeatherForYou, PWS Weather


Weather Underground History page Text

Daily Summary for January 26, 2018 Units:  Both    English   Metric
« Previous Day
Next Day »
Daily Weekly Monthly Yearly Custom
  High: Low: Average:
Temperature: TemperatureF °F /  -17.8 °C 21.2 °F /  -6 °C 29.7 °F /  -1.3 °C
Dew Point: DewpointF °F /  -17.8 °C 6.8 °F /  -14 °C 14.8 °F /  -9.6 °C
Humidity: Humidity % 40 % 54 %
Wind Speed: WindSpeedMPH mph /  0 km/h - 1.2 mph /  1.9 km/h
Wind Gust: WindSpeedGustMPH mph /  0 km/h - -
Wind:- - SSE
Pressure: PressureIn in /  0 hPa 30.33 in /  1027 hPa -
Precipitation: 0.00 in /  0 mm    
Historical Graphs
 
 
Tabular Data for January 26, 2018
Time Temperature Dew Point Pressure Wind Wind Speed Wind Gust Humidity Rainfall Rate (Hourly)
TemperatureF °F /  -17.8 °C DewpointF °F /  -17.8 °C PressureIn in /  0 hPa Calm     Humidity % HourlyPrecipIn in /  0 mm
00:01 27.9 °F /  -2.3 °C 7.2 °F /  -13.8 °C 30.33 in /  1027 hPa North 0.7 mph /  1.1 km/h 3.5 mph /  5.6 km/h 41 % 0.00 in /  0 mm
00:06 27.9 °F /  -2.3 °C 7.2 °F /  -13.8 °C 30.33 in /  1027 hPa North 1.3 mph /  2.1 km/h 4.6 mph /  7.4 km/h 41 % 0.00 in /  0 mm
00:11 27.9 °F /  -2.3 °C 7.2 °F /  -13.8 °C 30.33 in /  1027 hPa North 2.3 mph /  3.7 km/h 3.5 mph /  5.6 km/h 41 % 0.00 in /  0 mm
00:17 27.9 °F /  -2.3 °C 7.2 °F /  -13.8 °C 30.33 in /  1027 hPa NNW 2.4 mph /  3.9 km/h 4.6 mph /  7.4 km/h 41 % 0.00 in /  0 mm
00:22 27.9 °F /  -2.3 °C 7.2 °F /  -13.8 °C 30.33 in /  1027 hPa NNW 0.3 mph /  0.5 km/h 3.5 mph /  5.6 km/h 41 % 0.00 in /  0 mm
00:27 27.9 °F /  -2.3 °C 7.7 °F /  -13.5 °C 30.34 in /  1027.3 hPa NNW 0.1 mph /  0.2 km/h 1.2 mph /  1.9 km/h 42 % 0.00 in /  0 mm
00:32 27.9 °F /  -2.3 °C 7.7 °F /  -13.5 °C 30.33 in /  1027 hPa NNW 1.2 mph /  1.9 km/h 3.5 mph /  5.6 km/h 42 % 0.00 in /  0 mm
00:37 27.8 °F /  -2.3 °C 7.6 °F /  -13.6 °C 30.33 in /  1027 hPa North 3.5 mph /  5.6 km/h 4.6 mph /  7.4 km/h 42 % 0.00 in /  0 mm
00:42 27.8 °F /  -2.3 °C 7.6 °F /  -13.6 °C 30.33 in /  1027 hPa North 0.4 mph /  0.6 km/h 3.5 mph /  5.6 km/h 42 % 0.00 in /  0 mm
00:47 27.8 °F /  -2.3 °C 7.1 °F /  -13.8 °C 30.33 in /  1027 hPa North 2.7 mph /  4.3 km/h 4.6 mph /  7.4 km/h 41 % 0.00 in /  0 mm
00:52 27.8 °F /  -2.3 °C 7.1 °F /  -13.8 °C 30.33 in /  1027 hPa North 1.9 mph /  3.1 km/h 4.0 mph /  6.4 km/h 41 % 0.00 in /  0 mm
00:57 27.7 °F /  -2.4 °C 7.0 °F /  -13.9 °C 30.34 in /  1027.3 hPa North 1.8 mph /  2.9 km/h 3.5 mph /  5.6 km/h 41 % 0.00 in /  0 mm
01:02 27.7 °F /  -2.4 °C 7.0 °F /  -13.9 °C 30.34 in /  1027.3 hPa NNW 0.8 mph /  1.3 km/h 3.5 mph /  5.6 km/h 41 % 0.00 in /  0 mm
01:07 27.6 °F /  -2.4 °C 6.9 °F /  -13.9 °C 30.34 in /  1027.3 hPa NNW 0.4 mph /  0.6 km/h 2.3 mph /  3.7 km/h 41 % 0.00 in /  0 mm
01:12 27.6 °F /  -2.4 °C 7.5 °F /  -13.6 °C 30.34 in /  1027.3 hPa NNE 1.6 mph /  2.6 km/h 6.0 mph /  9.7 km/h 42 % 0.00 in /  0 mm
01:17 27.5 °F /  -2.5 °C 6.8 °F /  -14 °C 30.34 in /  1027.3 hPa NNE 2.8 mph /  4.5 km/h 4.0 mph /  6.4 km/h 41 % 0.00 in /  0 mm
01:22 27.5 °F /  -2.5 °C 7.4 °F /  -13.7 °C 30.34 in /  1027.3 hPa NNE 4.0 mph /  6.4 km/h 5.0 mph /  8 km/h 42 % 0.00 in /  0 mm
01:28 27.5 °F /  -2.5 °C 7.4 °F /  -13.7 °C 30.35 in /  1027.7 hPa NNE 1.5 mph /  2.4 km/h 2.3 mph /  3.7 km/h 42 % 0.00 in /  0 mm
01:33 27.6 °F /  -2.4 °C 7.5 °F /  -13.6 °C 30.35 in /  1027.7 hPa NNE 1.4 mph /  2.3 km/h 3.5 mph /  5.6 km/h 42 % 0.00 in /  0 mm
01:38 27.5 °F /  -2.5 °C 7.9 °F /  -13.4 °C 30.35 in /  1027.7 hPa NNE 0.5 mph /  0.8 km/h 2.3 mph /  3.7 km/h 43 % 0.00 in /  0 mm
01:43 27.5 °F /  -2.5 °C 7.4 °F /  -13.7 °C 30.36 in /  1028 hPa NNE 0.1 mph /  0.2 km/h 1.2 mph /  1.9 km/h 42 % 0.00 in /  0 mm
01:48 27.5 °F /  -2.5 °C 7.4 °F /  -13.7 °C 30.36 in /  1028 hPa NNE 1.0 mph /  1.6 km/h 3.5 mph /  5.6 km/h 42 % 0.00 in /  0 mm
01:53 27.5 °F /  -2.5 °C 7.9 °F /  -13.4 °C 30.35 in /  1027.7 hPa NNE 1.8 mph /  2.9 km/h 3.5 mph /  5.6 km/h 43 % 0.00 in /  0 mm
01:58 27.5 °F /  -2.5 °C 7.4 °F /  -13.7 °C 30.35 in /  1027.7 hPa NNE 2.3 mph /  3.7 km/h 3.5 mph /  5.6 km/h 42 % 0.00 in /  0 mm
02:03 27.5 °F /  -2.5 °C 7.4 °F /  -13.7 °C 30.35 in /  1027.7 hPa Calm     42 % 0.00 in /  0 mm
02:08 27.5 °F /  -2.5 °C 7.4 °F /  -13.7 °C 30.35 in /  1027.7 hPa Calm     42 % 0.00 in /  0 mm
02:13 27.5 °F /  -2.5 °C 7.4 °F /  -13.7 °C 30.35 in /  1027.7 hPa North 0.2 mph /  0.3 km/h 2.3 mph /  3.7 km/h 42 % 0.00 in /  0 mm
02:18 27.5 °F /  -2.5 °C 7.4 °F /  -13.7 °C 30.36 in /  1028 hPa North 0.5 mph /  0.8 km/h 2.3 mph /  3.7 km/h 42 % 0.00 in /  0 mm
02:23 27.5 °F /  -2.5 °C 7.4 °F /  -13.7 °C 30.36 in /  1028 hPa North 0.1 mph /  0.2 km/h 2.3 mph /  3.7 km/h 42 % 0.00 in /  0 mm
02:28 27.5 °F /  -2.5 °C 7.4 °F /  -13.7 °C 30.36 in /  1028 hPa North 1.5 mph /  2.4 km/h 3.5 mph /  5.6 km/h 42 % 0.00 in /  0 mm
02:33 27.4 °F /  -2.6 °C 6.8 °F /  -14 °C 30.35 in /  1027.7 hPa Calm   1.2 mph /  1.9 km/h 41 % 0.00 in /  0 mm
02:38 27.4 °F /  -2.6 °C 6.8 °F /  -14 °C 30.35 in /  1027.7 hPa Calm   1.2 mph /  1.9 km/h 41 % 0.00 in /  0 mm
02:43 27.4 °F /  -2.6 °C 7.3 °F /  -13.7 °C 30.36 in /  1028 hPa Calm     42 % 0.00 in /  0 mm
02:48 27.4 °F /  -2.6 °C 7.3 °F /  -13.7 °C 30.36 in /  1028 hPa North 0.5 mph /  0.8 km/h 2.3 mph /  3.7 km/h 42 % 0.00 in /  0 mm
02:53 27.4 °F /  -2.6 °C 7.3 °F /  -13.7 °C 30.36 in /  1028 hPa North 0.2 mph /  0.3 km/h   42 % 0.00 in /  0 mm
02:58 27.3 °F /  -2.6 °C 7.7 °F /  -13.5 °C 30.36 in /  1028 hPa Calm     43 % 0.00 in /  0 mm
03:04 27.2 °F /  -2.7 °C 7.6 °F /  -13.6 °C 30.36 in /  1028 hPa North 0.5 mph /  0.8 km/h 2.3 mph /  3.7 km/h 43 % 0.00 in /  0 mm
03:09 27.2 °F /  -2.7 °C 7.6 °F /  -13.6 °C 30.36 in /  1028 hPa Calm   1.2 mph /  1.9 km/h 43 % 0.00 in /  0 mm
03:14 27.0 °F /  -2.8 °C 8.0 °F /  -13.3 °C 30.36 in /  1028 hPa Calm     44 % 0.00 in /  0 mm
03:19 26.9 °F /  -2.8 °C 9.3 °F /  -12.6 °C 30.37 in /  1028.3 hPa Calm     47 % 0.00 in /  0 mm
03:24 26.7 °F /  -2.9 °C 9.6 °F /  -12.4 °C 30.37 in /  1028.3 hPa Calm     48 % 0.00 in /  0 mm
03:29 26.5 °F /  -3.1 °C 9.4 °F /  -12.6 °C 30.37 in /  1028.3 hPa Calm     48 % 0.00 in /  0 mm
03:34 26.3 °F /  -3.2 °C 9.7 °F /  -12.4 °C 30.37 in /  1028.3 hPa Calm     49 % 0.00 in /  0 mm
03:39 26.1 °F /  -3.3 °C 10.0 °F /  -12.2 °C 30.38 in /  1028.7 hPa Calm     50 % 0.00 in /  0 mm
03:44 25.9 °F /  -3.4 °C 10.2 °F /  -12.1 °C 30.37 in /  1028.3 hPa Calm     51 % 0.00 in /  0 mm
03:49 25.6 °F /  -3.6 °C 10.4 °F /  -12 °C 30.38 in /  1028.7 hPa Calm     52 % 0.00 in /  0 mm
03:54 25.4 °F /  -3.7 °C 10.6 °F /  -11.9 °C 30.38 in /  1028.7 hPa Calm     53 % 0.00 in /  0 mm
04:00 25.2 °F /  -3.8 °C 10.4 °F /  -12 °C 30.38 in /  1028.7 hPa Calm     53 % 0.00 in /  0 mm
04:05 24.9 °F /  -3.9 °C 10.6 °F /  -11.9 °C 30.38 in /  1028.7 hPa Calm     54 % 0.00 in /  0 mm
04:10 24.6 °F /  -4.1 °C 10.7 °F /  -11.8 °C 30.38 in /  1028.7 hPa Calm     55 % 0.00 in /  0 mm
04:15 24.4 °F /  -4.2 °C 10.5 °F /  -11.9 °C 30.38 in /  1028.7 hPa Calm     55 % 0.00 in /  0 mm
04:20 24.2 °F /  -4.3 °C 10.7 °F /  -11.8 °C 30.38 in /  1028.7 hPa Calm     56 % 0.00 in /  0 mm
04:25 24.0 °F /  -4.4 °C 10.6 °F /  -11.9 °C 30.38 in /  1028.7 hPa Calm   1.0 mph /  1.6 km/h 56 % 0.00 in /  0 mm
04:30 23.8 °F /  -4.6 °C 11.2 °F /  -11.6 °C 30.38 in /  1028.7 hPa North 0.6 mph /  1 km/h 1.2 mph /  1.9 km/h 58 % 0.00 in /  0 mm
04:35 23.5 °F /  -4.7 °C 10.9 °F /  -11.7 °C 30.38 in /  1028.7 hPa Calm     58 % 0.00 in /  0 mm
04:40 23.3 °F /  -4.8 °C 11.1 °F /  -11.6 °C 30.38 in /  1028.7 hPa North 0.4 mph /  0.6 km/h 1.2 mph /  1.9 km/h 59 % 0.00 in /  0 mm
04:45 23.1 °F /  -4.9 °C 10.5 °F /  -11.9 °C 30.39 in /  1029 hPa Calm   1.2 mph /  1.9 km/h 58 % 0.00 in /  0 mm
04:50 23.0 °F /  -5 °C 10.8 °F /  -11.8 °C 30.39 in /  1029 hPa Calm     59 % 0.00 in /  0 mm
04:55 22.9 °F /  -5.1 °C 10.7 °F /  -11.8 °C 30.39 in /  1029 hPa North 0.2 mph /  0.3 km/h 2.3 mph /  3.7 km/h 59 % 0.00 in /  0 mm
05:00 22.7 °F /  -5.2 °C 10.9 °F /  -11.7 °C 30.40 in /  1029.3 hPa Calm     60 % 0.00 in /  0 mm
05:05 22.5 °F /  -5.3 °C 11.1 °F /  -11.6 °C 30.40 in /  1029.3 hPa North 0.3 mph /  0.5 km/h 1.2 mph /  1.9 km/h 61 % 0.00 in /  0 mm
05:11 22.4 °F /  -5.3 °C 11.3 °F /  -11.5 °C 30.40 in /  1029.3 hPa North 0.2 mph /  0.3 km/h   62 % 0.00 in /  0 mm
05:16 22.2 °F /  -5.4 °C 11.1 °F /  -11.6 °C 30.40 in /  1029.3 hPa North 1.0 mph /  1.6 km/h 2.0 mph /  3.2 km/h 62 % 0.00 in /  0 mm
05:21 22.1 °F /  -5.5 °C 11.4 °F /  -11.4 °C 30.40 in /  1029.3 hPa North 1.0 mph /  1.6 km/h 2.0 mph /  3.2 km/h 63 % 0.00 in /  0 mm
05:26 21.9 °F /  -5.6 °C 11.2 °F /  -11.6 °C 30.41 in /  1029.7 hPa Calm   1.0 mph /  1.6 km/h 63 % 0.00 in /  0 mm
05:31 21.8 °F /  -5.7 °C 11.1 °F /  -11.6 °C 30.41 in /  1029.7 hPa Calm     63 % 0.00 in /  0 mm
05:36 21.6 °F /  -5.8 °C 11.3 °F /  -11.5 °C 30.41 in /  1029.7 hPa Calm   1.0 mph /  1.6 km/h 64 % 0.00 in /  0 mm
05:41 21.6 °F /  -5.8 °C 11.3 °F /  -11.5 °C 30.41 in /  1029.7 hPa Calm     64 % 0.00 in /  0 mm
05:46 21.5 °F /  -5.8 °C 11.5 °F /  -11.4 °C 30.41 in /  1029.7 hPa Calm     65 % 0.00 in /  0 mm
05:51 21.4 °F /  -5.9 °C 11.8 °F /  -11.2 °C 30.42 in /  1030 hPa Calm     66 % 0.00 in /  0 mm
05:56 21.3 °F /  -5.9 °C 12.0 °F /  -11.1 °C 30.42 in /  1030 hPa Calm     67 % 0.00 in /  0 mm
06:01 21.2 °F /  -6 °C 11.9 °F /  -11.2 °C 30.42 in /  1030 hPa Calm   1.2 mph /  1.9 km/h 67 % 0.00 in /  0 mm
06:06 21.2 °F /  -6 °C 11.9 °F /  -11.2 °C 30.42 in /  1030 hPa Calm     67 % 0.00 in /  0 mm
06:11 21.2 °F /  -6 °C 11.9 °F /  -11.2 °C 30.43 in /  1030.4 hPa Calm     67 % 0.00 in /  0 mm
06:16 21.2 °F /  -6 °C 11.9 °F /  -11.2 °C 30.42 in /  1030 hPa North 0.2 mph /  0.3 km/h 1.2 mph /  1.9 km/h 67 % 0.00 in /  0 mm
06:21 21.2 °F /  -6 °C 11.9 °F /  -11.2 °C 30.42 in /  1030 hPa Calm     67 % 0.00 in /  0 mm
06:26 21.2 °F /  -6 °C 11.9 °F /  -11.2 °C 30.43 in /  1030.4 hPa NNW 1.4 mph /  2.3 km/h 3.5 mph /  5.6 km/h 67 % 0.00 in /  0 mm
06:31 21.3 °F /  -5.9 °C 12.4 °F /  -10.9 °C 30.43 in /  1030.4 hPa Calm   1.2 mph /  1.9 km/h 68 % 0.00 in /  0 mm
06:36 21.3 °F /  -5.9 °C 12.7 °F /  -10.7 °C 30.44 in /  1030.7 hPa NW 0.9 mph /  1.4 km/h 2.3 mph /  3.7 km/h 69 % 0.00 in /  0 mm
06:41 21.4 °F /  -5.9 °C 12.8 °F /  -10.7 °C 30.43 in /  1030.4 hPa WNW 0.2 mph /  0.3 km/h 3.5 mph /  5.6 km/h 69 % 0.00 in /  0 mm
06:46 21.6 °F /  -5.8 °C 13.0 °F /  -10.6 °C 30.43 in /  1030.4 hPa WNW 0.9 mph /  1.4 km/h 2.3 mph /  3.7 km/h 69 % 0.00 in /  0 mm
06:51 21.7 °F /  -5.7 °C 13.1 °F /  -10.5 °C 30.43 in /  1030.4 hPa Calm   1.2 mph /  1.9 km/h 69 % 0.00 in /  0 mm
06:56 21.8 °F /  -5.7 °C 12.9 °F /  -10.6 °C 30.43 in /  1030.4 hPa WNW 1.3 mph /  2.1 km/h 4.6 mph /  7.4 km/h 68 % 0.00 in /  0 mm
07:01 22.0 °F /  -5.6 °C 12.7 °F /  -10.7 °C 30.43 in /  1030.4 hPa WNW 0.8 mph /  1.3 km/h 3.0 mph /  4.8 km/h 67 % 0.00 in /  0 mm
07:06 22.2 °F /  -5.4 °C 12.6 °F /  -10.8 °C 30.43 in /  1030.4 hPa NW 1.0 mph /  1.6 km/h 3.5 mph /  5.6 km/h 66 % 0.00 in /  0 mm
07:11 22.4 °F /  -5.3 °C 12.4 °F /  -10.9 °C 30.44 in /  1030.7 hPa NW 0.3 mph /  0.5 km/h 3.5 mph /  5.6 km/h 65 % 0.00 in /  0 mm
07:17 22.5 °F /  -5.3 °C 12.5 °F /  -10.8 °C 30.44 in /  1030.7 hPa NW 1.7 mph /  2.7 km/h 2.3 mph /  3.7 km/h 65 % 0.00 in /  0 mm
07:22 22.7 °F /  -5.2 °C 12.3 °F /  -10.9 °C 30.44 in /  1030.7 hPa WNW 1.0 mph /  1.6 km/h 3.5 mph /  5.6 km/h 64 % 0.00 in /  0 mm
07:27 22.9 °F /  -5.1 °C 12.5 °F /  -10.8 °C 30.45 in /  1031 hPa WNW 1.3 mph /  2.1 km/h 2.0 mph /  3.2 km/h 64 % 0.00 in /  0 mm
07:32 23.1 °F /  -4.9 °C 12.7 °F /  -10.7 °C 30.45 in /  1031 hPa WNW 0.8 mph /  1.3 km/h 3.5 mph /  5.6 km/h 64 % 0.00 in /  0 mm
07:37 23.3 °F /  -4.8 °C 12.6 °F /  -10.8 °C 30.45 in /  1031 hPa WNW 0.9 mph /  1.4 km/h 3.0 mph /  4.8 km/h 63 % 0.00 in /  0 mm
07:42 23.6 °F /  -4.7 °C 12.8 °F /  -10.7 °C 30.45 in /  1031 hPa NW 1.2 mph /  1.9 km/h 3.5 mph /  5.6 km/h 63 % 0.00 in /  0 mm
07:47 23.9 °F /  -4.5 °C 12.8 °F /  -10.7 °C 30.45 in /  1031 hPa NW 1.2 mph /  1.9 km/h 3.5 mph /  5.6 km/h 62 % 0.00 in /  0 mm
07:52 24.2 °F /  -4.3 °C 12.7 °F /  -10.7 °C 30.45 in /  1031 hPa NW 0.6 mph /  1 km/h 3.5 mph /  5.6 km/h 61 % 0.00 in /  0 mm
07:57 24.5 °F /  -4.2 °C 13.0 °F /  -10.6 °C 30.46 in /  1031.4 hPa NW 1.8 mph /  2.9 km/h 3.5 mph /  5.6 km/h 61 % 0.00 in /  0 mm
08:02 24.7 °F /  -4.1 °C 12.8 °F /  -10.7 °C 30.45 in /  1031 hPa NW 0.2 mph /  0.3 km/h 2.3 mph /  3.7 km/h 60 % 0.00 in /  0 mm
08:07 24.9 °F /  -3.9 °C 12.6 °F /  -10.8 °C 30.46 in /  1031.4 hPa North 0.5 mph /  0.8 km/h 2.3 mph /  3.7 km/h 59 % 0.00 in /  0 mm
08:12 25.4 °F /  -3.7 °C 13.1 °F /  -10.5 °C 30.46 in /  1031.4 hPa NNE 2.5 mph /  4 km/h 4.0 mph /  6.4 km/h 59 % 0.00 in /  0 mm
08:17 25.8 °F /  -3.4 °C 13.4 °F /  -10.3 °C 30.47 in /  1031.7 hPa NNE 3.3 mph /  5.3 km/h 4.6 mph /  7.4 km/h 59 % 0.00 in /  0 mm
08:22 26.2 °F /  -3.2 °C 14.2 °F /  -9.9 °C 30.47 in /  1031.7 hPa North 0.6 mph /  1 km/h 2.3 mph /  3.7 km/h 60 % 0.00 in /  0 mm
08:27 26.6 °F /  -3 °C 14.9 °F /  -9.5 °C 30.47 in /  1031.7 hPa North 2.7 mph /  4.3 km/h 3.5 mph /  5.6 km/h 61 % 0.00 in /  0 mm
08:32 26.9 °F /  -2.8 °C 14.9 °F /  -9.5 °C 30.47 in /  1031.7 hPa North 0.6 mph /  1 km/h 3.5 mph /  5.6 km/h 60 % 0.00 in /  0 mm
08:37 27.2 °F /  -2.7 °C 14.4 °F /  -9.8 °C 30.47 in /  1031.7 hPa Calm   3.5 mph /  5.6 km/h 58 % 0.00 in /  0 mm
08:42 27.5 °F /  -2.5 °C 14.6 °F /  -9.7 °C 30.47 in /  1031.7 hPa NE 0.9 mph /  1.4 km/h 2.3 mph /  3.7 km/h 58 % 0.00 in /  0 mm
08:47 27.7 °F /  -2.4 °C 14.8 °F /  -9.6 °C 30.47 in /  1031.7 hPa NNE 3.8 mph /  6.1 km/h 3.8 mph /  6.1 km/h 58 % 0.00 in /  0 mm
08:53 28.0 °F /  -2.2 °C 13.9 °F /  -10.1 °C 30.47 in /  1031.7 hPa North 1.9 mph /  3.1 km/h 3.5 mph /  5.6 km/h 55 % 0.00 in /  0 mm
08:58 28.4 °F /  -2 °C 13.9 °F /  -10.1 °C 30.47 in /  1031.7 hPa Calm   2.3 mph /  3.7 km/h 54 % 0.00 in /  0 mm
09:03 28.9 °F /  -1.7 °C 15.6 °F /  -9.1 °C 30.48 in /  1032.1 hPa North 1.3 mph /  2.1 km/h 3.5 mph /  5.6 km/h 57 % 0.00 in /  0 mm
09:08 29.2 °F /  -1.6 °C 14.6 °F /  -9.7 °C 30.48 in /  1032.1 hPa Calm   1.0 mph /  1.6 km/h 54 % 0.00 in /  0 mm
09:13 29.7 °F /  -1.3 °C 14.2 °F /  -9.9 °C 30.48 in /  1032.1 hPa ENE 1.7 mph /  2.7 km/h 3.5 mph /  5.6 km/h 52 % 0.00 in /  0 mm
09:18 30.0 °F /  -1.1 °C 14.0 °F /  -10 °C 30.48 in /  1032.1 hPa Calm   3.5 mph /  5.6 km/h 51 % 0.00 in /  0 mm
09:23 30.7 °F /  -0.7 °C 15.6 °F /  -9.1 °C 30.48 in /  1032.1 hPa NNE 0.6 mph /  1 km/h 2.3 mph /  3.7 km/h 53 % 0.00 in /  0 mm
09:28 31.2 °F /  -0.4 °C 16.0 °F /  -8.9 °C 30.49 in /  1032.4 hPa NE 0.5 mph /  0.8 km/h 2.3 mph /  3.7 km/h 53 % 0.00 in /  0 mm
09:33 31.6 °F /  -0.2 °C 16.4 °F /  -8.7 °C 30.49 in /  1032.4 hPa East 1.6 mph /  2.6 km/h 3.5 mph /  5.6 km/h 53 % 0.00 in /  0 mm
09:38 32.3 °F /  0.2 °C 16.2 °F /  -8.8 °C 30.49 in /  1032.4 hPa NE 1.6 mph /  2.6 km/h 3.5 mph /  5.6 km/h 51 % 0.00 in /  0 mm
09:43 32.3 °F /  0.2 °C 14.3 °F /  -9.8 °C 30.48 in /  1032.1 hPa ENE 3.0 mph /  4.8 km/h 6.9 mph /  11.1 km/h 47 % 0.00 in /  0 mm
09:48 32.2 °F /  0.1 °C 14.7 °F /  -9.6 °C 30.49 in /  1032.4 hPa ENE 0.7 mph /  1.1 km/h 3.5 mph /  5.6 km/h 48 % 0.00 in /  0 mm
09:53 32.5 °F /  0.3 °C 15.0 °F /  -9.4 °C 30.50 in /  1032.7 hPa NE 0.3 mph /  0.5 km/h 1.2 mph /  1.9 km/h 48 % 0.00 in /  0 mm
09:58 32.5 °F /  0.3 °C 14.5 °F /  -9.7 °C 30.49 in /  1032.4 hPa ENE 0.5 mph /  0.8 km/h 2.3 mph /  3.7 km/h 47 % 0.00 in /  0 mm
10:03 32.7 °F /  0.4 °C 15.1 °F /  -9.4 °C 30.49 in /  1032.4 hPa NNE 2.1 mph /  3.4 km/h 2.3 mph /  3.7 km/h 48 % 0.00 in /  0 mm
10:08 33.2 °F /  0.7 °C 15.1 °F /  -9.4 °C 30.49 in /  1032.4 hPa NNE 0.8 mph /  1.3 km/h 3.5 mph /  5.6 km/h 47 % 0.00 in /  0 mm
10:13 33.8 °F /  1 °C 15.2 °F /  -9.3 °C 30.49 in /  1032.4 hPa Calm     46 % 0.00 in /  0 mm
10:19 34.2 °F /  1.2 °C 15.0 °F /  -9.4 °C 30.50 in /  1032.7 hPa NNE 0.5 mph /  0.8 km/h 2.3 mph /  3.7 km/h 45 % 0.00 in /  0 mm
10:24 35.0 °F /  1.7 °C 16.3 °F /  -8.7 °C 30.50 in /  1032.7 hPa NNE 1.9 mph /  3.1 km/h 2.3 mph /  3.7 km/h 46 % 0.00 in /  0 mm
10:29 35.5 °F /  1.9 °C 16.2 °F /  -8.8 °C 30.50 in /  1032.7 hPa NE 1.9 mph /  3.1 km/h 3.5 mph /  5.6 km/h 45 % 0.00 in /  0 mm
10:34 35.8 °F /  2.1 °C 16.0 °F /  -8.9 °C 30.50 in /  1032.7 hPa ENE 3.0 mph /  4.8 km/h 4.6 mph /  7.4 km/h 44 % 0.00 in /  0 mm
10:39 34.9 °F /  1.6 °C 14.6 °F /  -9.7 °C 30.49 in /  1032.4 hPa ENE 1.7 mph /  2.7 km/h 4.0 mph /  6.4 km/h 43 % 0.00 in /  0 mm
10:44 34.6 °F /  1.4 °C 15.4 °F /  -9.2 °C 30.49 in /  1032.4 hPa NE 2.5 mph /  4 km/h 4.6 mph /  7.4 km/h 45 % 0.00 in /  0 mm
10:49 34.3 °F /  1.3 °C 14.6 °F /  -9.7 °C 30.49 in /  1032.4 hPa ENE 2.6 mph /  4.2 km/h 3.5 mph /  5.6 km/h 44 % 0.00 in /  0 mm
10:54 34.4 °F /  1.3 °C 16.2 °F /  -8.8 °C 30.49 in /  1032.4 hPa NNE 1.2 mph /  1.9 km/h 3.5 mph /  5.6 km/h 47 % 0.00 in /  0 mm
10:59 34.7 °F /  1.5 °C 14.5 °F /  -9.7 °C 30.49 in /  1032.4 hPa ENE 3.8 mph /  6.1 km/h 5.8 mph /  9.3 km/h 43 % 0.00 in /  0 mm
11:04 34.2 °F /  1.2 °C 13.5 °F /  -10.3 °C 30.49 in /  1032.4 hPa ENE 3.4 mph /  5.5 km/h 4.0 mph /  6.4 km/h 42 % 0.00 in /  0 mm
11:09 33.9 °F /  1.1 °C 14.3 °F /  -9.8 °C 30.48 in /  1032.1 hPa NE 2.0 mph /  3.2 km/h 3.5 mph /  5.6 km/h 44 % 0.00 in /  0 mm
11:14 34.3 °F /  1.3 °C 14.6 °F /  -9.7 °C 30.49 in /  1032.4 hPa NNE 2.1 mph /  3.4 km/h 3.5 mph /  5.6 km/h 44 % 0.00 in /  0 mm
11:19 34.4 °F /  1.3 °C 13.6 °F /  -10.2 °C 30.48 in /  1032.1 hPa NNE 2.9 mph /  4.7 km/h 3.5 mph /  5.6 km/h 42 % 0.00 in /  0 mm
11:24 34.5 °F /  1.4 °C 14.3 °F /  -9.8 °C 30.48 in /  1032.1 hPa NE 1.8 mph /  2.9 km/h 3.5 mph /  5.6 km/h 43 % 0.00 in /  0 mm
11:29 34.1 °F /  1.2 °C 12.8 °F /  -10.7 °C 30.48 in /  1032.1 hPa NE 2.6 mph /  4.2 km/h 4.6 mph /  7.4 km/h 41 % 0.00 in /  0 mm
11:34 33.7 °F /  0.9 °C 13.5 °F /  -10.3 °C 30.47 in /  1031.7 hPa ENE 1.9 mph /  3.1 km/h 4.0 mph /  6.4 km/h 43 % 0.00 in /  0 mm
11:39 33.5 °F /  0.8 °C 12.8 °F /  -10.7 °C 30.47 in /  1031.7 hPa NNE 2.1 mph /  3.4 km/h 4.6 mph /  7.4 km/h 42 % 0.00 in /  0 mm
11:45 33.7 °F /  0.9 °C 14.6 °F /  -9.7 °C 30.47 in /  1031.7 hPa NNE 2.0 mph /  3.2 km/h 2.3 mph /  3.7 km/h 45 % 0.00 in /  0 mm
11:50 33.8 °F /  1 °C 14.7 °F /  -9.6 °C 30.47 in /  1031.7 hPa North 1.1 mph /  1.8 km/h 3.0 mph /  4.8 km/h 45 % 0.00 in /  0 mm
11:55 33.7 °F /  0.9 °C 14.6 °F /  -9.7 °C 30.47 in /  1031.7 hPa NNE 2.4 mph /  3.9 km/h 3.5 mph /  5.6 km/h 45 % 0.00 in /  0 mm
12:00 33.5 °F /  0.8 °C 14.4 °F /  -9.8 °C 30.46 in /  1031.4 hPa NE 4.0 mph /  6.4 km/h 5.8 mph /  9.3 km/h 45 % 0.00 in /  0 mm
12:05 33.3 °F /  0.7 °C 14.2 °F /  -9.9 °C 30.46 in /  1031.4 hPa North 2.7 mph /  4.3 km/h 3.5 mph /  5.6 km/h 45 % 0.00 in /  0 mm
12:10 33.1 °F /  0.6 °C 13.5 °F /  -10.3 °C 30.46 in /  1031.4 hPa North 3.4 mph /  5.5 km/h 4.6 mph /  7.4 km/h 44 % 0.00 in /  0 mm
12:15 33.1 °F /  0.6 °C 14.0 °F /  -10 °C 30.45 in /  1031 hPa NNE 2.0 mph /  3.2 km/h 3.5 mph /  5.6 km/h 45 % 0.00 in /  0 mm
12:20 33.3 °F /  0.7 °C 14.7 °F /  -9.6 °C 30.45 in /  1031 hPa North 4.0 mph /  6.4 km/h 5.8 mph /  9.3 km/h 46 % 0.00 in /  0 mm
12:25 33.5 °F /  0.8 °C 14.4 °F /  -9.8 °C 30.44 in /  1030.7 hPa NNW 2.5 mph /  4 km/h 3.5 mph /  5.6 km/h 45 % 0.00 in /  0 mm
12:30 33.8 °F /  1 °C 14.2 °F /  -9.9 °C 30.44 in /  1030.7 hPa North 2.5 mph /  4 km/h 4.0 mph /  6.4 km/h 44 % 0.00 in /  0 mm
12:35 34.1 °F /  1.2 °C 14.4 °F /  -9.8 °C 30.44 in /  1030.7 hPa NNE 3.0 mph /  4.8 km/h 5.0 mph /  8 km/h 44 % 0.00 in /  0 mm
12:40 34.1 °F /  1.2 °C 14.4 °F /  -9.8 °C 30.44 in /  1030.7 hPa NNW 2.2 mph /  3.5 km/h 3.5 mph /  5.6 km/h 44 % 0.00 in /  0 mm
12:45 34.2 °F /  1.2 °C 14.5 °F /  -9.7 °C 30.43 in /  1030.4 hPa NNW 1.7 mph /  2.7 km/h 3.0 mph /  4.8 km/h 44 % 0.00 in /  0 mm
12:50 34.3 °F /  1.3 °C 14.6 °F /  -9.7 °C 30.43 in /  1030.4 hPa NW 2.7 mph /  4.3 km/h 3.5 mph /  5.6 km/h 44 % 0.00 in /  0 mm
12:55 34.5 °F /  1.4 °C 14.8 °F /  -9.6 °C 30.43 in /  1030.4 hPa WNW 0.9 mph /  1.4 km/h 3.0 mph /  4.8 km/h 44 % 0.00 in /  0 mm
13:00 34.7 °F /  1.5 °C 14.5 °F /  -9.7 °C 30.43 in /  1030.4 hPa WNW 2.1 mph /  3.4 km/h 3.5 mph /  5.6 km/h 43 % 0.00 in /  0 mm
13:05 34.9 °F /  1.6 °C 14.6 °F /  -9.7 °C 30.43 in /  1030.4 hPa West 1.8 mph /  2.9 km/h 3.5 mph /  5.6 km/h 43 % 0.00 in /  0 mm
13:11 35.1 °F /  1.7 °C 14.3 °F /  -9.8 °C 30.42 in /  1030 hPa West 2.0 mph /  3.2 km/h 6.0 mph /  9.7 km/h 42 % 0.00 in /  0 mm
13:16 35.3 °F /  1.8 °C 16.0 °F /  -8.9 °C 30.41 in /  1029.7 hPa NNW 2.0 mph /  3.2 km/h 5.0 mph /  8 km/h 45 % 0.00 in /  0 mm
13:21 35.5 °F /  1.9 °C 16.2 °F /  -8.8 °C 30.42 in /  1030 hPa North 1.0 mph /  1.6 km/h 3.0 mph /  4.8 km/h 45 % 0.00 in /  0 mm
13:26 35.9 °F /  2.2 °C 16.6 °F /  -8.6 °C 30.42 in /  1030 hPa NW 1.0 mph /  1.6 km/h 5.0 mph /  8 km/h 45 % 0.00 in /  0 mm
13:30 36.2 °F /  2.3 °C 15.3 °F /  -9.3 °C 30.42 in /  1030 hPa NW 3.0 mph /  4.8 km/h 5.0 mph /  8 km/h 42 % 0.00 in /  0 mm
13:36 36.4 °F /  2.4 °C 15.5 °F /  -9.2 °C 30.41 in /  1029.7 hPa NW 2.0 mph /  3.2 km/h 5.0 mph /  8 km/h 42 % 0.00 in /  0 mm
13:40 36.6 °F /  2.6 °C 16.2 °F /  -8.8 °C 30.41 in /  1029.7 hPa NW 2.0 mph /  3.2 km/h 5.0 mph /  8 km/h 43 % 0.00 in /  0 mm
13:46 36.8 °F /  2.7 °C 16.4 °F /  -8.7 °C 30.41 in /  1029.7 hPa NW 1.0 mph /  1.6 km/h 5.0 mph /  8 km/h 43 % 0.00 in /  0 mm
13:50 37.2 °F /  2.9 °C 16.1 °F /  -8.8 °C 30.41 in /  1029.7 hPa NW 1.0 mph /  1.6 km/h 4.0 mph /  6.4 km/h 42 % 0.00 in /  0 mm
13:55 37.4 °F /  3 °C 15.8 °F /  -9 °C 30.41 in /  1029.7 hPa Calm   5.0 mph /  8 km/h 41 % 0.00 in /  0 mm
14:01 37.5 °F /  3.1 °C 15.3 °F /  -9.3 °C 30.41 in /  1029.7 hPa NNW 3.4 mph /  5.5 km/h 4.0 mph /  6.4 km/h 40 % 0.00 in /  0 mm
14:05 37.5 °F /  3.1 °C 15.3 °F /  -9.3 °C 30.40 in /  1029.3 hPa NNW 2.0 mph /  3.2 km/h 6.0 mph /  9.7 km/h 40 % 0.00 in /  0 mm
14:07 37.5 °F /  3.1 °C 15.3 °F /  -9.3 °C 30.41 in /  1029.7 hPa West 0.5 mph /  0.8 km/h 3.5 mph /  5.6 km/h 40 % 0.00 in /  0 mm
14:12 37.5 °F /  3.1 °C 15.3 °F /  -9.3 °C 30.40 in /  1029.3 hPa NNE 3.9 mph /  6.3 km/h 5.0 mph /  8 km/h 40 % 0.00 in /  0 mm
14:17 37.4 °F /  3 °C 15.8 °F /  -9 °C 30.40 in /  1029.3 hPa NNE 1.9 mph /  3.1 km/h 4.0 mph /  6.4 km/h 41 % 0.00 in /  0 mm
14:22 37.4 °F /  3 °C 15.2 °F /  -9.3 °C 30.40 in /  1029.3 hPa NNW 1.8 mph /  2.9 km/h 3.5 mph /  5.6 km/h 40 % 0.00 in /  0 mm
14:28 37.2 °F /  2.9 °C 15.6 °F /  -9.1 °C 30.40 in /  1029.3 hPa NNW 4.0 mph /  6.4 km/h 4.6 mph /  7.4 km/h 41 % 0.00 in /  0 mm
14:33 36.9 °F /  2.7 °C 15.9 °F /  -8.9 °C 30.40 in /  1029.3 hPa NNE 4.6 mph /  7.4 km/h 5.0 mph /  8 km/h 42 % 0.00 in /  0 mm
14:38 36.6 °F /  2.6 °C 15.6 °F /  -9.1 °C 30.40 in /  1029.3 hPa NNW 2.7 mph /  4.3 km/h 4.6 mph /  7.4 km/h 42 % 0.00 in /  0 mm
14:43 36.2 °F /  2.3 °C 15.3 °F /  -9.3 °C 30.40 in /  1029.3 hPa North 2.1 mph /  3.4 km/h 3.5 mph /  5.6 km/h 42 % 0.00 in /  0 mm
14:48 35.9 °F /  2.2 °C 15.0 °F /  -9.4 °C 30.40 in /  1029.3 hPa North 1.6 mph /  2.6 km/h 3.5 mph /  5.6 km/h 42 % 0.00 in /  0 mm
14:53 35.6 °F /  2 °C 15.3 °F /  -9.3 °C 30.40 in /  1029.3 hPa NNW 2.5 mph /  4 km/h 4.6 mph /  7.4 km/h 43 % 0.00 in /  0 mm
14:58 35.3 °F /  1.8 °C 15.5 °F /  -9.2 °C 30.40 in /  1029.3 hPa NNE 1.8 mph /  2.9 km/h 3.5 mph /  5.6 km/h 44 % 0.00 in /  0 mm
15:03 35.0 °F /  1.7 °C 14.2 °F /  -9.9 °C 30.39 in /  1029 hPa NW 2.2 mph /  3.5 km/h 4.6 mph /  7.4 km/h 42 % 0.00 in /  0 mm
15:08 34.8 °F /  1.6 °C 14.0 °F /  -10 °C 30.40 in /  1029.3 hPa NW 0.8 mph /  1.3 km/h 3.5 mph /  5.6 km/h 42 % 0.00 in /  0 mm
15:13 34.6 °F /  1.4 °C 14.4 °F /  -9.8 °C 30.39 in /  1029 hPa NNW 2.5 mph /  4 km/h 3.5 mph /  5.6 km/h 43 % 0.00 in /  0 mm
15:18 34.4 °F /  1.3 °C 14.2 °F /  -9.9 °C 30.39 in /  1029 hPa NNW 2.1 mph /  3.4 km/h 3.5 mph /  5.6 km/h 43 % 0.00 in /  0 mm
15:23 34.3 °F /  1.3 °C 14.6 °F /  -9.7 °C 30.39 in /  1029 hPa North 0.1 mph /  0.2 km/h 1.2 mph /  1.9 km/h 44 % 0.00 in /  0 mm
15:28 34.2 °F /  1.2 °C 15.0 °F /  -9.4 °C 30.39 in /  1029 hPa North 1.1 mph /  1.8 km/h 3.0 mph /  4.8 km/h 45 % 0.00 in /  0 mm
15:33 34.0 °F /  1.1 °C 14.3 °F /  -9.8 °C 30.40 in /  1029.3 hPa North 2.6 mph /  4.2 km/h 3.5 mph /  5.6 km/h 44 % 0.00 in /  0 mm
15:38 33.9 °F /  1.1 °C 14.8 °F /  -9.6 °C 30.39 in /  1029 hPa North 1.9 mph /  3.1 km/h 3.5 mph /  5.6 km/h 45 % 0.00 in /  0 mm
15:43 33.8 °F /  1 °C 15.2 °F /  -9.3 °C 30.39 in /  1029 hPa NNE 0.1 mph /  0.2 km/h 1.2 mph /  1.9 km/h 46 % 0.00 in /  0 mm
15:48 33.7 °F /  0.9 °C 14.6 °F /  -9.7 °C 30.39 in /  1029 hPa NE 0.3 mph /  0.5 km/h 2.3 mph /  3.7 km/h 45 % 0.00 in /  0 mm
15:53 33.6 °F /  0.9 °C 15.0 °F /  -9.4 °C 30.39 in /  1029 hPa NE 0.1 mph /  0.2 km/h 2.3 mph /  3.7 km/h 46 % 0.00 in /  0 mm
15:59 33.5 °F /  0.8 °C 15.4 °F /  -9.2 °C 30.39 in /  1029 hPa NE 0.6 mph /  1 km/h 3.5 mph /  5.6 km/h 47 % 0.00 in /  0 mm
16:04 33.5 °F /  0.8 °C 15.9 °F /  -8.9 °C 30.39 in /  1029 hPa NE 0.1 mph /  0.2 km/h 1.2 mph /  1.9 km/h 48 % 0.00 in /  0 mm
16:09 33.4 °F /  0.8 °C 16.3 °F /  -8.7 °C 30.40 in /  1029.3 hPa NE 1.0 mph /  1.6 km/h 2.3 mph /  3.7 km/h 49 % 0.00 in /  0 mm
16:14 33.3 °F /  0.7 °C 16.2 °F /  -8.8 °C 30.39 in /  1029 hPa NE 0.6 mph /  1 km/h 2.3 mph /  3.7 km/h 49 % 0.00 in /  0 mm
16:19 33.3 °F /  0.7 °C 16.2 °F /  -8.8 °C 30.39 in /  1029 hPa Calm   1.2 mph /  1.9 km/h 49 % 0.00 in /  0 mm
16:24 33.2 °F /  0.7 °C 15.6 °F /  -9.1 °C 30.39 in /  1029 hPa Calm     48 % 0.00 in /  0 mm
16:29 33.1 °F /  0.6 °C 16.0 °F /  -8.9 °C 30.39 in /  1029 hPa Calm   1.2 mph /  1.9 km/h 49 % 0.00 in /  0 mm
16:34 33.1 °F /  0.6 °C 16.5 °F /  -8.6 °C 30.38 in /  1028.7 hPa Calm     50 % 0.00 in /  0 mm
16:39 33.0 °F /  0.6 °C 16.4 °F /  -8.7 °C 30.39 in /  1029 hPa Calm     50 % 0.00 in /  0 mm
16:44 32.9 °F /  0.5 °C 16.3 °F /  -8.7 °C 30.39 in /  1029 hPa Calm     50 % 0.00 in /  0 mm
16:49 32.8 °F /  0.4 °C 16.2 °F /  -8.8 °C 30.39 in /  1029 hPa Calm     50 % 0.00 in /  0 mm
16:54 32.8 °F /  0.4 °C 16.2 °F /  -8.8 °C 30.39 in /  1029 hPa Calm     50 % 0.00 in /  0 mm
16:59 32.6 °F /  0.3 °C 16.0 °F /  -8.9 °C 30.39 in /  1029 hPa Calm     50 % 0.00 in /  0 mm
17:04 32.4 °F /  0.2 °C 16.3 °F /  -8.7 °C 30.39 in /  1029 hPa Calm     51 % 0.00 in /  0 mm
17:09 32.3 °F /  0.2 °C 16.2 °F /  -8.8 °C 30.39 in /  1029 hPa Calm   1.2 mph /  1.9 km/h 51 % 0.00 in /  0 mm
17:15 32.1 °F /  0.1 °C 15.5 °F /  -9.2 °C 30.39 in /  1029 hPa Calm     50 % 0.00 in /  0 mm
17:20 32.0 °F /  0 °C 15.4 °F /  -9.2 °C 30.39 in /  1029 hPa Calm     50 % 0.00 in /  0 mm
17:25 31.9 °F /  -0.1 °C 15.3 °F /  -9.3 °C 30.38 in /  1028.7 hPa Calm     50 % 0.00 in /  0 mm
17:30 31.7 °F /  -0.2 °C 15.2 °F /  -9.3 °C 30.39 in /  1029 hPa Calm     50 % 0.00 in /  0 mm
17:35 31.6 °F /  -0.2 °C 15.5 °F /  -9.2 °C 30.39 in /  1029 hPa Calm     51 % 0.00 in /  0 mm
17:40 31.5 °F /  -0.3 °C 15.9 °F /  -8.9 °C 30.39 in /  1029 hPa SSE 0.3 mph /  0.5 km/h 2.3 mph /  3.7 km/h 52 % 0.00 in /  0 mm
17:45 31.4 °F /  -0.3 °C 16.2 °F /  -8.8 °C 30.39 in /  1029 hPa SSE 0.2 mph /  0.3 km/h 1.2 mph /  1.9 km/h 53 % 0.00 in /  0 mm
17:50 31.4 °F /  -0.3 °C 16.7 °F /  -8.5 °C 30.39 in /  1029 hPa SSE 0.8 mph /  1.3 km/h 3.5 mph /  5.6 km/h 54 % 0.00 in /  0 mm
17:55 31.4 °F /  -0.3 °C 17.5 °F /  -8.1 °C 30.39 in /  1029 hPa SSE 1.6 mph /  2.6 km/h 3.5 mph /  5.6 km/h 56 % 0.00 in /  0 mm
18:00 31.4 °F /  -0.3 °C 17.5 °F /  -8.1 °C 30.39 in /  1029 hPa SSE 2.2 mph /  3.5 km/h 3.5 mph /  5.6 km/h 56 % 0.00 in /  0 mm
18:05 31.5 °F /  -0.3 °C 17.6 °F /  -8 °C 30.39 in /  1029 hPa SSE 2.4 mph /  3.9 km/h 3.5 mph /  5.6 km/h 56 % 0.00 in /  0 mm
18:10 31.6 °F /  -0.2 °C 18.1 °F /  -7.7 °C 30.39 in /  1029 hPa SSW 0.9 mph /  1.4 km/h 5.0 mph /  8 km/h 57 % 0.00 in /  0 mm
18:15 31.5 °F /  -0.3 °C 18.0 °F /  -7.8 °C 30.40 in /  1029.3 hPa SSE 2.1 mph /  3.4 km/h 3.5 mph /  5.6 km/h 57 % 0.00 in /  0 mm
18:20 31.5 °F /  -0.3 °C 18.0 °F /  -7.8 °C 30.39 in /  1029 hPa SSW 2.2 mph /  3.5 km/h 4.6 mph /  7.4 km/h 57 % 0.00 in /  0 mm
18:25 31.5 °F /  -0.3 °C 18.0 °F /  -7.8 °C 30.39 in /  1029 hPa South 3.2 mph /  5.1 km/h 4.0 mph /  6.4 km/h 57 % 0.00 in /  0 mm
18:31 31.4 °F /  -0.3 °C 18.3 °F /  -7.6 °C 30.39 in /  1029 hPa South 5.0 mph /  8 km/h 6.0 mph /  9.7 km/h 58 % 0.00 in /  0 mm
18:36 31.3 °F /  -0.4 °C 18.6 °F /  -7.4 °C 30.39 in /  1029 hPa South 1.0 mph /  1.6 km/h 8.0 mph /  12.9 km/h 59 % 0.00 in /  0 mm
18:41 31.2 °F /  -0.4 °C 18.9 °F /  -7.3 °C 30.40 in /  1029.3 hPa South 2.0 mph /  3.2 km/h 5.0 mph /  8 km/h 60 % 0.00 in /  0 mm
18:46 31.2 °F /  -0.4 °C 19.3 °F /  -7.1 °C 30.40 in /  1029.3 hPa South 5.0 mph /  8 km/h 8.0 mph /  12.9 km/h 61 % 0.00 in /  0 mm
18:51 31.1 °F /  -0.5 °C 19.2 °F /  -7.1 °C 30.40 in /  1029.3 hPa South 3.0 mph /  4.8 km/h 6.0 mph /  9.7 km/h 61 % 0.00 in /  0 mm
18:56 31.0 °F /  -0.6 °C 19.5 °F /  -6.9 °C 30.41 in /  1029.7 hPa South 2.0 mph /  3.2 km/h 5.0 mph /  8 km/h 62 % 0.00 in /  0 mm
19:01 30.9 °F /  -0.6 °C 19.4 °F /  -7 °C 30.41 in /  1029.7 hPa SSW 2.8 mph /  4.5 km/h 4.0 mph /  6.4 km/h 62 % 0.00 in /  0 mm
19:06 30.8 °F /  -0.7 °C 19.7 °F /  -6.8 °C 30.40 in /  1029.3 hPa SSW 2.0 mph /  3.2 km/h 8.0 mph /  12.9 km/h 63 % 0.00 in /  0 mm
19:11 30.8 °F /  -0.7 °C 19.7 °F /  -6.8 °C 30.40 in /  1029.3 hPa South 3.0 mph /  4.8 km/h 6.0 mph /  9.7 km/h 63 % 0.00 in /  0 mm
19:16 30.7 °F /  -0.7 °C 19.6 °F /  -6.9 °C 30.41 in /  1029.7 hPa South 2.0 mph /  3.2 km/h 4.0 mph /  6.4 km/h 63 % 0.00 in /  0 mm
19:21 30.6 °F /  -0.8 °C 19.9 °F /  -6.7 °C 30.40 in /  1029.3 hPa South 1.0 mph /  1.6 km/h 6.0 mph /  9.7 km/h 64 % 0.00 in /  0 mm
19:26 30.6 °F /  -0.8 °C 20.2 °F /  -6.6 °C 30.41 in /  1029.7 hPa South 2.0 mph /  3.2 km/h 5.0 mph /  8 km/h 65 % 0.00 in /  0 mm
19:31 30.6 °F /  -0.8 °C 20.2 °F /  -6.6 °C 30.41 in /  1029.7 hPa South 1.0 mph /  1.6 km/h 7.0 mph /  11.3 km/h 65 % 0.00 in /  0 mm
19:36 30.5 °F /  -0.8 °C 20.5 °F /  -6.4 °C 30.41 in /  1029.7 hPa South 1.0 mph /  1.6 km/h 5.0 mph /  8 km/h 66 % 0.00 in /  0 mm
19:41 30.5 °F /  -0.8 °C 20.5 °F /  -6.4 °C 30.41 in /  1029.7 hPa South 2.0 mph /  3.2 km/h 6.0 mph /  9.7 km/h 66 % 0.00 in /  0 mm
19:46 30.5 °F /  -0.8 °C 20.5 °F /  -6.4 °C 30.42 in /  1030 hPa South 1.0 mph /  1.6 km/h 5.0 mph /  8 km/h 66 % 0.00 in /  0 mm
19:51 30.5 °F /  -0.8 °C 20.5 °F /  -6.4 °C 30.41 in /  1029.7 hPa South 1.0 mph /  1.6 km/h 4.0 mph /  6.4 km/h 66 % 0.00 in /  0 mm
19:56 30.5 °F /  -0.8 °C 20.5 °F /  -6.4 °C 30.41 in /  1029.7 hPa South 2.0 mph /  3.2 km/h 6.0 mph /  9.7 km/h 66 % 0.00 in /  0 mm
20:01 30.5 °F /  -0.8 °C 20.5 °F /  -6.4 °C 30.41 in /  1029.7 hPa South 3.3 mph /  5.3 km/h 6.0 mph /  9.7 km/h 66 % 0.00 in /  0 mm
20:06 30.5 °F /  -0.8 °C 20.8 °F /  -6.2 °C 30.41 in /  1029.7 hPa South 2.3 mph /  3.7 km/h 5.0 mph /  8 km/h 67 % 0.00 in /  0 mm
20:11 30.5 °F /  -0.8 °C 20.8 °F /  -6.2 °C 30.41 in /  1029.7 hPa SSW 1.0 mph /  1.6 km/h 3.5 mph /  5.6 km/h 67 % 0.00 in /  0 mm
20:16 30.5 °F /  -0.8 °C 20.8 °F /  -6.2 °C 30.41 in /  1029.7 hPa SW 1.3 mph /  2.1 km/h 3.5 mph /  5.6 km/h 67 % 0.00 in /  0 mm
20:21 30.5 °F /  -0.8 °C 20.8 °F /  -6.2 °C 30.41 in /  1029.7 hPa SSW 3.4 mph /  5.5 km/h 5.8 mph /  9.3 km/h 67 % 0.00 in /  0 mm
20:26 30.5 °F /  -0.8 °C 21.2 °F /  -6 °C 30.42 in /  1030 hPa South 1.8 mph /  2.9 km/h 3.5 mph /  5.6 km/h 68 % 0.00 in /  0 mm
20:31 30.5 °F /  -0.8 °C 21.2 °F /  -6 °C 30.41 in /  1029.7 hPa SSW 3.4 mph /  5.5 km/h 5.0 mph /  8 km/h 68 % 0.00 in /  0 mm
20:36 30.6 °F /  -0.8 °C 21.3 °F /  -5.9 °C 30.41 in /  1029.7 hPa SSW 2.3 mph /  3.7 km/h 3.5 mph /  5.6 km/h 68 % 0.00 in /  0 mm
20:41 30.6 °F /  -0.8 °C 21.3 °F /  -5.9 °C 30.41 in /  1029.7 hPa SSW 1.2 mph /  1.9 km/h 4.0 mph /  6.4 km/h 68 % 0.00 in /  0 mm
20:46 30.6 °F /  -0.8 °C 21.3 °F /  -5.9 °C 30.41 in /  1029.7 hPa South 1.9 mph /  3.1 km/h 3.5 mph /  5.6 km/h 68 % 0.00 in /  0 mm
20:51 30.6 °F /  -0.8 °C 21.3 °F /  -5.9 °C 30.41 in /  1029.7 hPa SSW 3.1 mph /  5 km/h 4.6 mph /  7.4 km/h 68 % 0.00 in /  0 mm
20:56 30.6 °F /  -0.8 °C 21.6 °F /  -5.8 °C 30.41 in /  1029.7 hPa SSW 0.5 mph /  0.8 km/h 5.0 mph /  8 km/h 69 % 0.00 in /  0 mm
21:01 30.5 °F /  -0.8 °C 21.5 °F /  -5.8 °C 30.40 in /  1029.3 hPa SSW 1.9 mph /  3.1 km/h 5.8 mph /  9.3 km/h 69 % 0.00 in /  0 mm
21:06 30.6 °F /  -0.8 °C 22.0 °F /  -5.6 °C 30.40 in /  1029.3 hPa South 2.1 mph /  3.4 km/h 6.0 mph /  9.7 km/h 70 % 0.00 in /  0 mm
21:11 30.6 °F /  -0.8 °C 22.0 °F /  -5.6 °C 30.40 in /  1029.3 hPa South 0.6 mph /  1 km/h 3.5 mph /  5.6 km/h 70 % 0.00 in /  0 mm
21:17 30.6 °F /  -0.8 °C 22.3 °F /  -5.4 °C 30.40 in /  1029.3 hPa SSE 0.3 mph /  0.5 km/h 3.5 mph /  5.6 km/h 71 % 0.00 in /  0 mm
21:22 30.6 °F /  -0.8 °C 22.3 °F /  -5.4 °C 30.40 in /  1029.3 hPa South 2.8 mph /  4.5 km/h 4.6 mph /  7.4 km/h 71 % 0.00 in /  0 mm
21:27 30.7 °F /  -0.7 °C 22.4 °F /  -5.3 °C 30.40 in /  1029.3 hPa South 0.2 mph /  0.3 km/h 2.3 mph /  3.7 km/h 71 % 0.00 in /  0 mm
21:32 30.8 °F /  -0.7 °C 22.8 °F /  -5.1 °C 30.40 in /  1029.3 hPa South 0.5 mph /  0.8 km/h 2.3 mph /  3.7 km/h 72 % 0.00 in /  0 mm
21:37 30.8 °F /  -0.7 °C 22.8 °F /  -5.1 °C 30.41 in /  1029.7 hPa South 0.3 mph /  0.5 km/h 2.3 mph /  3.7 km/h 72 % 0.00 in /  0 mm
21:42 30.8 °F /  -0.7 °C 22.8 °F /  -5.1 °C 30.40 in /  1029.3 hPa Calm     72 % 0.00 in /  0 mm
21:47 30.8 °F /  -0.7 °C 22.8 °F /  -5.1 °C 30.40 in /  1029.3 hPa Calm   1.2 mph /  1.9 km/h 72 % 0.00 in /  0 mm
21:52 30.8 °F /  -0.7 °C 22.8 °F /  -5.1 °C 30.40 in /  1029.3 hPa Calm     72 % 0.00 in /  0 mm
21:57 30.7 °F /  -0.7 °C 22.7 °F /  -5.2 °C 30.39 in /  1029 hPa South 0.2 mph /  0.3 km/h 1.0 mph /  1.6 km/h 72 % 0.00 in /  0 mm
22:02 30.6 °F /  -0.8 °C 22.6 °F /  -5.2 °C 30.39 in /  1029 hPa South 0.5 mph /  0.8 km/h 2.3 mph /  3.7 km/h 72 % 0.00 in /  0 mm
22:07 30.6 °F /  -0.8 °C 23.0 °F /  -5 °C 30.39 in /  1029 hPa Calm     73 % 0.00 in /  0 mm
22:12 30.6 °F /  -0.8 °C 23.0 °F /  -5 °C 30.38 in /  1028.7 hPa Calm     73 % 0.00 in /  0 mm
22:17 30.5 °F /  -0.8 °C 22.9 °F /  -5.1 °C 30.39 in /  1029 hPa Calm   1.2 mph /  1.9 km/h 73 % 0.00 in /  0 mm
22:22 30.4 °F /  -0.9 °C 23.1 °F /  -4.9 °C 30.39 in /  1029 hPa Calm     74 % 0.00 in /  0 mm
22:27 30.3 °F /  -0.9 °C 23.0 °F /  -5 °C 30.39 in /  1029 hPa South 0.5 mph /  0.8 km/h 2.3 mph /  3.7 km/h 74 % 0.00 in /  0 mm
22:32 30.2 °F /  -1 °C 22.6 °F /  -5.2 °C 30.39 in /  1029 hPa South 0.7 mph /  1.1 km/h 2.3 mph /  3.7 km/h 73 % 0.00 in /  0 mm
22:37 30.1 °F /  -1.1 °C 22.8 °F /  -5.1 °C 30.39 in /  1029 hPa South 0.4 mph /  0.6 km/h 1.0 mph /  1.6 km/h 74 % 0.00 in /  0 mm
22:43 30.1 °F /  -1.1 °C 22.8 °F /  -5.1 °C 30.38 in /  1028.7 hPa Calm     74 % 0.00 in /  0 mm
22:48 30.0 °F /  -1.1 °C 22.7 °F /  -5.2 °C 30.38 in /  1028.7 hPa South 1.0 mph /  1.6 km/h 3.5 mph /  5.6 km/h 74 % 0.00 in /  0 mm
22:53 29.9 °F /  -1.2 °C 22.6 °F /  -5.2 °C 30.38 in /  1028.7 hPa Calm     74 % 0.00 in /  0 mm
22:58 29.8 °F /  -1.2 °C 22.8 °F /  -5.1 °C 30.38 in /  1028.7 hPa South 0.7 mph /  1.1 km/h 3.0 mph /  4.8 km/h 75 % 0.00 in /  0 mm
23:03 29.7 °F /  -1.3 °C 22.7 °F /  -5.2 °C 30.38 in /  1028.7 hPa South 0.2 mph /  0.3 km/h 2.3 mph /  3.7 km/h 75 % 0.00 in /  0 mm
23:08 29.7 °F /  -1.3 °C 22.7 °F /  -5.2 °C 30.38 in /  1028.7 hPa South 0.1 mph /  0.2 km/h 1.2 mph /  1.9 km/h 75 % 0.00 in /  0 mm
23:13 29.6 °F /  -1.3 °C 22.6 °F /  -5.2 °C 30.38 in /  1028.7 hPa Calm     75 % 0.00 in /  0 mm
23:18 29.5 °F /  -1.4 °C 22.9 °F /  -5.1 °C 30.38 in /  1028.7 hPa Calm     76 % 0.00 in /  0 mm
23:23 29.4 °F /  -1.4 °C 22.8 °F /  -5.1 °C 30.38 in /  1028.7 hPa South 0.1 mph /  0.2 km/h 1.2 mph /  1.9 km/h 76 % 0.00 in /  0 mm
23:28 29.3 °F /  -1.5 °C 22.7 °F /  -5.2 °C 30.38 in /  1028.7 hPa South 0.3 mph /  0.5 km/h 2.3 mph /  3.7 km/h 76 % 0.00 in /  0 mm
23:33 29.1 °F /  -1.6 °C 22.5 °F /  -5.3 °C 30.37 in /  1028.3 hPa Calm     76 % 0.00 in /  0 mm
23:38 29.0 °F /  -1.7 °C 22.4 °F /  -5.3 °C 30.37 in /  1028.3 hPa SSW 1.2 mph /  1.9 km/h 3.5 mph /  5.6 km/h 76 % 0.00 in /  0 mm
23:43 28.8 °F /  -1.8 °C 22.8 °F /  -5.1 °C 30.37 in /  1028.3 hPa SSW 0.7 mph /  1.1 km/h 2.3 mph /  3.7 km/h 78 % 0.00 in /  0 mm
23:48 28.7 °F /  -1.8 °C 22.7 °F /  -5.2 °C 30.37 in /  1028.3 hPa SSW 0.7 mph /  1.1 km/h 2.3 mph /  3.7 km/h 78 % 0.00 in /  0 mm
23:53 28.7 °F /  -1.8 °C 23.3 °F /  -4.8 °C 30.36 in /  1028 hPa SSW 0.5 mph /  0.8 km/h 3.5 mph /  5.6 km/h 80 % 0.00 in /  0 mm
23:58 28.7 °F /  -1.8 °C 23.6 °F /  -4.7 °C 30.36 in /  1028 hPa SSW 1.1 mph /  1.8 km/h 3.5 mph /  5.6 km/h 81 % 0.00 in /  0 mm
Crab Meadow Weather
Compliments of Weather Underground - 3 mb

Script developed by  Jim McMurry - jmcmurry@mwt.net Adapted for the template by  Wim van der Kuil - Leuven-Template.eu

Weather Terms: Downburst - A strong downdraft from a thunderstorm resulting in an outward burst of damaging winds on or near the ground. Downburst winds are often 50 to 100 mph and in a few cases, 100 to 150 mph. They can do as much damage as a small tornado.